^^

METAR Αεροδρομίων

σε ακτίνα 500 χλμ


 Τι είναι το METAR ??? 

Πρώτο είναι το πλησιέστερο αεροδρόμιο (Θεσ/νίκη LGTS 6χλμ) και
τέλος το πιο απομακρυσμένο (Κων/πολη LTBA 494χλμ).
Επίσης μερικές αναφορές, παρουσιάζουν λιγότερα στοιχεία γιατί
οι αρχικές είναι ελλιπείς ή έχουν λάθος μορφοποίηση.
Πηγαίνετε στις Αναφορές METAR από Μετεωρολογικούς Σταθμούς )  
Αλφαβητική Λίστα Γρήγορης Μετάβασης στα 48 Αεροδρόμια
Αλβανία: Τίρανα  Βουλγαρία: Γκόρνα Οριαχόβιτσα  Μπουργκάς  Σόφια  Φιλιππούπολη  Ελλάδα: Αθήνα  Αλεξανδρούπολη  Ανδραβίδα  Βόλος  Ελευσίνα  Ζάκυνθος  Θεσσαλονίκη  Ιωάννινα  Καβάλα  Καλαμάτα  Κέρκυρα  Κεφαλονιά  Κοζάνη  Κύθηρα
Λέσβος  Λήμνος  Μύκονος  Νάξος  Πάρος  Πάτρα  Πρέβεζα  Σάμος  Σκιάθος  Σκύρος  Σύρος  Χίος  Ιταλία: Γκαλατίνα  Μπρίντιζι  Σάντα Μαρία ντι Λέουκα  Ταράντο  Κόσοβο: Πρίστινα  Κροατία: Ντουμπρόβνικ  Μαυροβούνιο: Ποντγκόριτσα  Τιβάτ
Δ.Β.Μ: Οχρίδα  Σκόπια  Ρουμανία: Κραϊόβα  Σερβία: Κράλιεβο  Νις  Ούζιτσε  Τουρκία: Κωνσταντινούπολη  Σμύρνη Τσορλού 
(ΒΠΑ)Βάση Πολεμικής Αεροπορίας
LGTS - Αεροδρόμιο "Μακεδονία"
Θεσσαλονίκη - Κεντρική Μακεδονία - Ελλάδα
Γ.Πλάτ: 40.5167 - Γ.Μήκ: 22.9667 - Υψόμ: 7μ
Απόσταση από το Vouhead Weather: (Ν) 6χλμ
Ενημερώθηκε: 18/07/2019 19:50
Διάσπαρτα νέφη
Διάσπαρτα νέφη
 Άνεμος από Ν
Άνεμος: Ν 20 km/h
Θερμοκρασία: 29°C
Δείκτης Δυσφορίας: 28°C
Σημ. Δρόσου: 14°C
Υγρασία: 40%
Βαρόμετρο: 1011 hPa
Σύννεφα: Διάσπαρτα νέφη
Ορατότητα: 10 km
Ανάλυση νέφωσης: Διάσπαρτα νέφη 762 m
2019/07/18 16:50 LGTS 181650Z 18011KT 9999 FEW025 29/14 Q1011 NOSIG
LGKZ - Αεροδρόμιο "Φίλιππος"
Κοζάνη - Δυτική Μακεδονία - Ελλάδα
Γ.Πλάτ: 40.2833 - Γ.Μήκ: 21.8333 - Υψόμ: 628μ
Απόσταση από το Vouhead Weather: (ΔΝΔ) 102χλμ
Ενημερώθηκε: 18/07/2019 19:50
Μερικώς νεφελώδης
Μερικώς νεφελώδης
 Άνεμος από calm
Άνεμος: Απνοια
Θερμοκρασία: 25°C
Σημ. Δρόσου: 8°C
Υγρασία: 34%
Βαρόμετρο: 1014 hPa
Σύννεφα: Μερικώς νεφελώδης
Ορατότητα: 10 km
Ανάλυση νέφωσης: Μερικώς νεφελώδης 2134 m
2019/07/18 16:50 LGKZ 181650Z 00000KT 9999 SCT070 25/08 Q1014
 
LGKV - Αεροδρόμιο "Μέγας Αλέξανδρος"
Καβάλα(Χρυσούπολη) - Α. Μακεδονία & Θράκη - Ελλάδα
Γ.Πλάτ: 40.9167 - Γ.Μήκ: 24.6167 - Υψόμ: 5μ
Απόσταση από το Vouhead Weather: (ΑΒΑ) 144χλμ
Ενημερώθηκε: 18/07/2019 19:50
Μερικώς νεφελώδης
Μερικώς νεφελώδης
 Άνεμος από ΝΔ
Άνεμος: ΝΔ 7 km/h
Θερμοκρασία: 26°C
Σημ. Δρόσου: 17°C
Υγρασία: 58%
Βαρόμετρο: 1010 hPa
Σύννεφα: Μερικώς νεφελώδης
Ορατότητα: 10 km
Ανάλυση νέφωσης: Διάσπαρτα νέφη 914 m
Μερικώς νεφελώδης 2438 m
2019/07/18 16:50 LGKV 181650Z 22004KT 9999 FEW030 SCT080 26/17 Q1010
LGBL - Αεροδρόμιο στη Νέα Αγχίαλο
Βόλος(Αλμυρός) - Θεσσαλία - Ελλάδα
Γ.Πλάτ: 39.2167 - Γ.Μήκ: 22.8000 - Υψόμ: 26μ
Απόσταση από το Vouhead Weather: (Ν) 151χλμ
Ενημερώθηκε: 18/07/2019 19:50
Διάσπαρτα νέφη
Διάσπαρτα νέφη
 Άνεμος από Α
Άνεμος: Α 15 km/h
Θερμοκρασία: 28°C
Δείκτης Δυσφορίας: 28°C
Σημ. Δρόσου: 16°C
Υγρασία: 48%
Βαρόμετρο: 1011 hPa
Σύννεφα: Διάσπαρτα νέφη
Ορατότητα: 10 km
Ανάλυση νέφωσης: Διάσπαρτα νέφη 1372 m
2019/07/18 16:50 LGBL 181650Z 10008KT 9999 FEW045 28/16 Q1011
 
LGSK - Αεροδρόμ. "Αλέξανδρος Παπαδιαμάντης"
Σκιάθος - Θεσσαλία(Σποράδες) - Ελλάδα
Γ.Πλάτ: 39.1833 - Γ.Μήκ: 23.5000 - Υψόμ: 15μ
Απόσταση από το Vouhead Weather: (ΝΝΑ) 160χλμ
Ενημερώθηκε: 18/07/2019 19:50
Αίθριος
Αίθριος
 Άνεμος από calm
Άνεμος: Απνοια
Θερμοκρασία: 28°C
Δείκτης Δυσφορίας: 29°C
Σημ. Δρόσου: 18°C
Υγρασία: 55%
Βαρόμετρο: 1011 hPa
Περίληψη: Αίθριος
Ορατότητα: Μεγαλύτερη από 10 km
2019/07/18 16:50 LGSK 181650Z 00000KT CAVOK 28/18 Q1011
LWSK - Αεροδρόμιο "Σκόπγιε Ιντερνάσιοναλ Έιρπορτ"
Σκόπια(Πέτροβακ) - Περιφέρεια Σκοπίων - Δ.Β.Μ
Γ.Πλάτ: 41.9667 - Γ.Μήκ: 21.6333 - Υψόμ: 239μ
Απόσταση από το Vouhead Weather: (ΒΔ) 192χλμ
Ενημερώθηκε: 18/07/2019 20:30
Διάσπαρτα νέφη
Διάσπαρτα νέφη
 Άνεμος από Β
Άνεμος: Β 11 km/h
Θερμοκρασία: 28°C
Σημ. Δρόσου: 10°C
Υγρασία: 32%
Βαρόμετρο: 1012 hPa
Σύννεφα: Διάσπαρτα νέφη
Ορατότητα: 10 km
Ανάλυση νέφωσης: Διάσπαρτα νέφη 1829 m
2019/07/18 17:30 LWSK 181730Z 36006KT 9999 FEW060 28/10 Q1012
 
LWOH - Αεροδρόμιο "Σεντ Πολ Δε Απόστλ"
Οχρίδα - Νοτιοδυτική Περιφέρεια - Δ.Β.Μ
Γ.Πλάτ: 41.9667 - Γ.Μήκ: 21.6333 - Υψόμ: 239μ
Απόσταση από το Vouhead Weather: (ΔΒΔ) 193χλμ
Ενημερώθηκε: 18/07/2019 20:00
Διάσπαρτα νέφη
Διάσπαρτα νέφη
 Άνεμος από calm
Άνεμος: Απνοια
Θερμοκρασία: 22°C
Σημ. Δρόσου: 13°C
Υγρασία: 57%
Βαρόμετρο: 1014 hPa
Σύννεφα: Διάσπαρτα νέφη
Ορατότητα: 10 km
Ανάλυση νέφωσης: Διάσπαρτα νέφη 1219 m
2019/07/18 17:00 LWOH 181700Z 00000KT 9999 FEW040TCU 22/13 Q1014
LGLM - Αεροδρόμιο "Ήφαιστος"
Λήμνος - Βόρειο Αιγαίο - Ελλάδα
Γ.Πλάτ: 39.9167 - Γ.Μήκ: 25.2333 - Υψόμ: 5μ
Απόσταση από το Vouhead Weather: (ΑΝΑ) 205χλμ
Ενημερώθηκε: 18/07/2019 19:50
Αίθριος
Αίθριος
 Άνεμος από ΒΒΔ
Άνεμος: ΒΒΔ 9 km/h
Θερμοκρασία: 28°C
Δείκτης Δυσφορίας: 27°C
Σημ. Δρόσου: 13°C
Υγρασία: 40%
Βαρόμετρο: 1010 hPa
Περίληψη: Αίθριος
Ορατότητα: Μεγαλύτερη από 10 km
2019/07/18 16:50 LGLM 181650Z 33005KT CAVOK 28/13 Q1010
 
LGIO - Αεροδρόμιο "Βασιλεύς Πύρρος"
Ιωάννινα - Ήπειρος - Ελλάδα
Γ.Πλάτ: 39.7000 - Γ.Μήκ: 20.8167 - Υψόμ: 476μ
Απόσταση από το Vouhead Weather: (ΔΝΔ) 207χλμ
Ενημερώθηκε: 18/07/2019 19:50
Διάσπαρτα νέφη
Διάσπαρτα νέφη
 Άνεμος από Μεταβλητός
Άνεμος: Μεταβλητός 0 km/h
Θερμοκρασία: 25°C
Σημ. Δρόσου: 13°C
Υγρασία: 47%
Βαρόμετρο: 1013 hPa
Σύννεφα: Διάσπαρτα νέφη
Ορατότητα: 10 km
Ανάλυση νέφωσης: Διάσπαρτα νέφη 914 m
2019/07/18 16:50 LGIO 181650Z /////KT 9999 FEW030 25/13 Q1013
LGSY - Αεροδρόμιο στη Σκύρο
Σκύρος - Θεσσαλία(Σποράδες) - Ελλάδα
Γ.Πλάτ: 38.9667 - Γ.Μήκ: 24.4833 - Υψόμ: 15μ
Απόσταση από το Vouhead Weather: (ΝΑ) 220χλμ
Ενημερώθηκε: 18/07/2019 19:50
Αίθριος
Αίθριος
 Άνεμος από ΒΒΔ
Άνεμος: ΒΒΔ 9 km/h
Θερμοκρασία: 26°C
Σημ. Δρόσου: 16°C
Υγρασία: 54%
Βαρόμετρο: 1011 hPa
Περίληψη: Αίθριος
Ορατότητα: Μεγαλύτερη από 10 km
2019/07/18 16:50 LGSY 181650Z 33005KT CAVOK 26/16 Q1011
 
LBPD - Αεροδρόμιο στη Φιλιππούπολη
Φιλιππούπολη(Κρούμοβο) - Πλόβντιβ - Βουλγαρία
Γ.Πλάτ: 42.1333 - Γ.Μήκ: 24.8000 - Υψόμ: 185μ
Απόσταση από το Vouhead Weather: (ΒΑ) 231χλμ
Ενημερώθηκε: 18/07/2019 20:00
Αίθριος
Αίθριος
 Άνεμος από ΒΒΑ
Άνεμος: ΒΒΑ 6 km/h
Θερμοκρασία: 28°C
Σημ. Δρόσου: 10°C
Υγρασία: 32%
Βαρόμετρο: 1012 hPa
Σύννεφα: Αίθριος
Ορατότητα: 10 km
2019/07/18 17:00 LBPD 181700Z AUTO 03003KT 9999 NCD 28/10 Q1012 NOSIG
LBSF - Αεροδρόμιο στη Σόφια
Σόφια(Βράτσντεμπνα) - Μητρ. περ. Σόφιας - Βουλγαρία
Γ.Πλάτ: 42.6500 - Γ.Μήκ: 23.3833 - Υψόμ: 595μ
Απόσταση από το Vouhead Weather: (Β) 234χλμ
Ενημερώθηκε: 18/07/2019 20:00
Διάσπαρτα νέφη
Διάσπαρτα νέφη
 Άνεμος από ΒΑ
Άνεμος: ΒΑ 9 km/h
Θερμοκρασία: 24°C
Σημ. Δρόσου: 11°C
Υγρασία: 44%
Βαρόμετρο: 1013 hPa
Σύννεφα: Διάσπαρτα νέφη
Ορατότητα: 10 km
Ανάλυση νέφωσης: Διάσπαρτα νέφη 1981 m
2019/07/18 17:00 LBSF 181700Z 04005KT 010V070 9999 FEW065 24/11 Q1013 NOSIG
 
LGAL - Αεροδρόμιο "Δημόκριτος"
Αλεξανδρούπολη - Α. Μακεδονία & Θράκη - Ελλάδα
Γ.Πλάτ: 40.8500 - Γ.Μήκ: 25.9167 - Υψόμ: 3μ
Απόσταση από το Vouhead Weather: (Α) 250χλμ
Ενημερώθηκε: 18/07/2019 19:50
Διάσπαρτα νέφη
Διάσπαρτα νέφη
 Άνεμος από ΔΝΔ
Άνεμος: ΔΝΔ 7 km/h
Θερμοκρασία: 28°C
Δείκτης Δυσφορίας: 28°C
Σημ. Δρόσου: 16°C
Υγρασία: 48%
Βαρόμετρο: 1010 hPa
Σύννεφα: Διάσπαρτα νέφη
Ορατότητα: 10 km
Ανάλυση νέφωσης: Διάσπαρτα νέφη 914 m
2019/07/18 16:50 LGAL 181650Z 24004KT 9999 FEW030 28/16 Q1010
BKPR - Αεροδρόμιο "Αντεμ Γιασάρι"
Πρίστινα - Πρίστινα - Κόσοβο
(Ελληνικό Υπουργείο Εξωτερικών, σχετικά με το Κόσοβο)
Γ.Πλάτ: 42.5833 - Γ.Μήκ: 21.0333 - Υψόμ: 576μ
Απόσταση από το Vouhead Weather: (ΒΔ) 276χλμ
Ενημερώθηκε: 18/07/2019 20:30
Μερικώς νεφελώδης
Μερικώς νεφελώδης
 Άνεμος από ΒΒΑ
Άνεμος: ΒΒΑ 11 km/h
Θερμοκρασία: 25°C
Σημ. Δρόσου: 12°C
Υγρασία: 44%
Βαρόμετρο: 1013 hPa
Σύννεφα: Μερικώς νεφελώδης
Ορατότητα: 10 km
Ανάλυση νέφωσης: Διάσπαρτα νέφη 1219 m
Μερικώς νεφελώδης 6096 m
2019/07/18 17:30 BKPR 181730Z 02006KT 9999 FEW040 SCT200 25/12 Q1013 NOSIG
 
LGKR - Αεροδρόμιο "Ιωάννης Καποδίστριας"
Κέρκυρα - Ιόνιοι Νήσοι - Ελλάδα
Γ.Πλάτ: 39.6000 - Γ.Μήκ: 19.9167 - Υψόμ: 2μ
Απόσταση από το Vouhead Weather: (ΔΝΔ) 281χλμ
Ενημερώθηκε: 18/07/2019 19:50
Διάσπαρτα νέφη
Διάσπαρτα νέφη
 Άνεμος από ΔΝΔ
Άνεμος: ΔΝΔ 13 km/h
Θερμοκρασία: 29°C
Δείκτης Δυσφορίας: 28°C
Σημ. Δρόσου: 14°C
Υγρασία: 40%
Βαρόμετρο: 1011 hPa
Σύννεφα: Διάσπαρτα νέφη
Ορατότητα: 10 km
Ανάλυση νέφωσης: Διάσπαρτα νέφη 914 m
2019/07/18 16:50 LGKR 181650Z 25007KT 9999 FEW030 29/14 Q1011 NOSIG
LATI - Αεροδρόμιο "Μάδερ Τερέζα"
Τίρανα(Ρίνα) - Τίρανα - Αλβανία
Γ.Πλάτ: 41.3167 - Γ.Μήκ: 19.7667 - Υψόμ: 90μ
Απόσταση από το Vouhead Weather: (ΔΒΔ) 282χλμ
Ενημερώθηκε: 18/07/2019 20:20
Αίθριος
Αίθριος
 Άνεμος από Δ
Άνεμος: Δ 4 km/h
Θερμοκρασία: 28°C
Δείκτης Δυσφορίας: 28°C
Σημ. Δρόσου: 15°C
Υγρασία: 45%
Βαρόμετρο: 1012 hPa
Περίληψη: Αίθριος
Ορατότητα: Μεγαλύτερη από 10 km
2019/07/18 17:20 LATI 181720Z 27002KT CAVOK 28/15 Q1012 NOSIG
 
LGEL - Αεροδρόμιο στην Ελευσίνα(ΒΠΑ)
Ελευσίνα - Αττική - Ελλάδα
Γ.Πλάτ: 38.0667 - Γ.Μήκ: 23.5500 - Υψόμ: 31μ
Απόσταση από το Vouhead Weather: (Ν) 282χλμ
Ενημερώθηκε: 18/07/2019 19:50
Μερικώς νεφελώδης
Μερικώς νεφελώδης
 Άνεμος από Ν
Άνεμος: Ν 11 km/h
Θερμοκρασία: 29°C
Δείκτης Δυσφορίας: 28°C
Σημ. Δρόσου: 14°C
Υγρασία: 40%
Βαρόμετρο: 1010 hPa
Σύννεφα: Μερικώς νεφελώδης
Ορατότητα: 10 km
Ανάλυση νέφωσης: Μερικώς νεφελώδης 762 m
2019/07/18 16:50 LGEL 181650Z 18006KT 9999 SCT025 29/14 Q1010
LGPZ - Αεροδρόμιο στη Πρέβεζα
Πρέβεζα(Ακτιον) - Ήπειρος - Ελλάδα
Γ.Πλάτ: 38.6167 - Γ.Μήκ: 20.7667 - Υψόμ: 4μ
Απόσταση από το Vouhead Weather: (ΝΔ) 288χλμ
Ενημερώθηκε: 18/07/2019 19:50
Διάσπαρτα νέφη
Διάσπαρτα νέφη
 Άνεμος από ΔΝΔ
Άνεμος: ΔΝΔ 15 km/h
Θερμοκρασία: 25°C
Σημ. Δρόσου: 20°C
Υγρασία: 74%
Βαρόμετρο: 1012 hPa
Σύννεφα: Διάσπαρτα νέφη
Ορατότητα: 10 km
Ανάλυση νέφωσης: Διάσπαρτα νέφη 914 m
2019/07/18 16:50 LGPZ 181650Z 25008KT 9999 FEW030 25/20 Q1012
 
LGRX - Αεροδρόμιο στη Πάτρα(ΒΠΑ)
Πάτρα(Αραξος) - Δυτική Ελλάδα - Ελλάδα
Γ.Πλάτ: 38.1667 - Γ.Μήκ: 21.4167 - Υψόμ: 15μ
Απόσταση από το Vouhead Weather: (ΝΝΔ) 299χλμ
Ενημερώθηκε: 18/07/2019 19:50
Διάσπαρτα νέφη
Διάσπαρτα νέφη
 Άνεμος από Δ
Άνεμος: Δ 9 km/h
Θερμοκρασία: 27°C
Δείκτης Δυσφορίας: 28°C
Σημ. Δρόσου: 19°C
Υγρασία: 62%
Βαρόμετρο: 1011 hPa
Σύννεφα: Διάσπαρτα νέφη
Ορατότητα: 10 km
Ανάλυση νέφωσης: Διάσπαρτα νέφη 914 m
2019/07/18 16:50 LGRX 181650Z 27005KT 9999 FEW030 27/19 Q1011
LGAV - Αεροδρόμιο "Ελευθέριος Βεμιζέλος"
Αθήνα(Σπάτα) - Αττική - Ελλάδα
Γ.Πλάτ: 37.9333 - Γ.Μήκ: 23.9500 - Υψόμ: 94μ
Απόσταση από το Vouhead Weather: (ΝΝΑ) 305χλμ
Ενημερώθηκε: 18/07/2019 19:50
Αίθριος
Αίθριος
 Άνεμος από ΒΑ
Άνεμος: ΒΑ 19 km/h
Θερμοκρασία: 27°C
Σημ. Δρόσου: 12°C
Υγρασία: 39%
Βαρόμετρο: 1012 hPa
Περίληψη: Αίθριος
Ορατότητα: Μεγαλύτερη από 10 km
2019/07/18 16:50 LGAV 181650Z 04010KT CAVOK 27/12 Q1012 NOSIG
 
LYNI - Αεροδρόμιο "Κονσταντίν Δε Γκρέιτ"
Νις - Νότια και Ανατολική Σερβία - Σερβία
Γ.Πλάτ: 43.3167 - Γ.Μήκ: 21.8833 - Υψόμ: 202μ
Απόσταση από το Vouhead Weather: (ΒΒΔ) 319χλμ
Ενημερώθηκε: 18/07/2019 20:00
Αίθριος
Αίθριος
 Άνεμος από ΒΔ
Άνεμος: ΒΔ 13 km/h, Ριπή: 31 km/h
Θερμοκρασία: 28°C
Σημ. Δρόσου: 8°C
Υγρασία: 28%
Βαρόμετρο: 1012 hPa
Περίληψη: Αίθριος
Ορατότητα: Μεγαλύτερη από 10 km
2019/07/18 17:00 LYNI 181700Z 32007G17KT CAVOK 28/08 Q1012 NOSIG
LGAD - Αεροδρόμιο στην Ανδραβίδα(ΒΠΑ)
Ανδραβίδα - Δυτική Ελλάδα - Ελλάδα
Γ.Πλάτ: 37.9167 - Γ.Μήκ: 21.2667 - Υψόμ: 12μ
Απόσταση από το Vouhead Weather: (ΝΝΔ) 329χλμ
Ενημερώθηκε: 18/07/2019 19:50
Διάσπαρτα νέφη
Διάσπαρτα νέφη
 Άνεμος από ΔΒΔ
Άνεμος: ΔΒΔ 11 km/h
Θερμοκρασία: 27°C
Δείκτης Δυσφορίας: 27°C
Σημ. Δρόσου: 15°C
Υγρασία: 48%
Βαρόμετρο: 1011 hPa
Σύννεφα: Διάσπαρτα νέφη
Ορατότητα: 10 km
Ανάλυση νέφωσης: Διάσπαρτα νέφη 610 m
2019/07/18 16:50 LGAD 181650Z 30006KT 9999 FEW020 27/15 Q1011
 
LGKF - Αεροδρόμιο στην Κεφαλονιά
Κεφαλονιά - Ιόνιοι Νήσοι - Ελλάδα
Γ.Πλάτ: 38.1167 - Γ.Μήκ: 20.5000 - Υψόμ: 18μ
Απόσταση από το Vouhead Weather: (ΝΔ) 346χλμ
Ενημερώθηκε: 18/07/2019 19:50
Αίθριος
Αίθριος
 Άνεμος από ΒΒΔ
Άνεμος: ΒΒΔ 20 km/h
Θερμοκρασία: 28°C
Δείκτης Δυσφορίας: 28°C
Σημ. Δρόσου: 14°C
Υγρασία: 42%
Βαρόμετρο: 1011 hPa
Περίληψη: Αίθριος
Ορατότητα: Μεγαλύτερη από 10 km
2019/07/18 16:50 LGKF 181650Z 33011KT CAVOK 28/14 Q1011
LGMT - Αεροδρόμιο "Οδυσσέας Ελύτης"
Λέσβος - Βόρειο Αιγαίο - Ελλάδα
Γ.Πλάτ: 39.0500 - Γ.Μήκ: 26.6000 - Υψόμ: 17μ
Απόσταση από το Vouhead Weather: (ΑΝΑ) 353χλμ
Ενημερώθηκε: 18/07/2019 19:50
Αίθριος
Αίθριος
 Άνεμος από ΒΔ
Άνεμος: ΒΔ 13 km/h
Θερμοκρασία: 28°C
Δείκτης Δυσφορίας: 27°C
Σημ. Δρόσου: 13°C
Υγρασία: 40%
Βαρόμετρο: 1010 hPa
Περίληψη: Αίθριος
Ορατότητα: Μεγαλύτερη από 10 km
2019/07/18 16:50 LGMT 181650Z 31007KT 260V010 CAVOK 28/13 Q1010
 
LGZA - Αεροδρόμιο "Διονύσιος Σολωμός"
Ζάκυνθος - Ιόνιοι Νήσοι - Ελλάδα
Γ.Πλάτ: 37.7500 - Γ.Μήκ: 20.8667 - Υψόμ: 3μ
Απόσταση από το Vouhead Weather: (ΝΝΔ) 362χλμ
Ενημερώθηκε: 18/07/2019 19:50
Αίθριος
Αίθριος
 Άνεμος από ΒΒΔ
Άνεμος: ΒΒΔ 9 km/h
Θερμοκρασία: 29°C
Δείκτης Δυσφορίας: 29°C
Σημ. Δρόσου: 15°C
Υγρασία: 43%
Βαρόμετρο: 1011 hPa
Περίληψη: Αίθριος
Ορατότητα: Μεγαλύτερη από 10 km
2019/07/18 16:50 LGZA 181650Z 33005KT CAVOK 29/15 Q1011
LBGO - Αεροδρόμιο στη Γκόρνα Οριαχόβιτσα
Γκόρνα Οριαχόβιτσα - Βέλικο Τάρνοβο - Βουλγαρία
Γ.Πλάτ: 43.1500 - Γ.Μήκ: 25.7167 - Υψόμ: 86μ
Απόσταση από το Vouhead Weather: (ΒΑ) 366χλμ
Ενημερώθηκε: 18/07/2019 20:00
Αίθριος
Αίθριος
 Άνεμος από Β
Άνεμος: Β 4 km/h
Θερμοκρασία: 27°C
Δείκτης Δυσφορίας: 27°C
Σημ. Δρόσου: 15°C
Υγρασία: 48%
Βαρόμετρο: 1012 hPa
Σύννεφα: Αίθριος
Ορατότητα: 10 km
2019/07/18 17:00 LBGO 181700Z AUTO 36002KT 9999 NCD 27/15 Q1012
 
LGHI - Αεροδρόμιο "Όμηρος"
Χίος - Ιόνιοι Νήσοι - Ελλάδα
Γ.Πλάτ: 38.3167 - Γ.Μήκ: 26.1167 - Υψόμ: 4μ
Απόσταση από το Vouhead Weather: (ΝΑ) 368χλμ
Ενημερώθηκε: 18/07/2019 19:50
Αίθριος
Αίθριος
 Άνεμος από Β
Άνεμος: Β 19 km/h
Θερμοκρασία: 29°C
Σημ. Δρόσου: 12°C
Υγρασία: 35%
Βαρόμετρο: 1008 hPa
Περίληψη: Αίθριος
Ορατότητα: Μεγαλύτερη από 10 km
2019/07/18 16:50 LGHI 181650Z 35010KT CAVOK 29/12 Q1008
LYPG - Αεροδρόμιο στη Ποντγκόριτσα
Ποντγκόριτσα - Γκολούμποβτσι - Μαυροβούνιο
Γ.Πλάτ: 42.3667 - Γ.Μήκ: 19.2500 - Υψόμ: 43μ
Απόσταση από το Vouhead Weather: (ΒΔ) 369χλμ
Ενημερώθηκε: 18/07/2019 20:00
Διάσπαρτα νέφη
Διάσπαρτα νέφη
 Άνεμος από ΔΝΔ
Άνεμος: ΔΝΔ 13 km/h
Θερμοκρασία: 30°C
Σημ. Δρόσου: 10°C
Υγρασία: 29%
Βαρόμετρο: 1011 hPa
Σύννεφα: Διάσπαρτα νέφη
Ορατότητα: 10 km
Ανάλυση νέφωσης: Διάσπαρτα νέφη 1219 m
2019/07/18 17:00 LYPG 181700Z 24007KT 9999 FEW040 30/10 Q1011 NOSIG
 
LGSO - Αεροδρόμιο "Δημήτριος Βικέλας"
Σύρος - Νότιο Αιγαίο - Ελλάδα
Γ.Πλάτ: 37.4167 - Γ.Μήκ: 24.9500 - Υψόμ: 72μ
Απόσταση από το Vouhead Weather: (ΝΝΑ) 390χλμ
Ενημερώθηκε: 18/07/2019 18:50
ΜΗ ΠΡΟΣΦΑΤΟ METAR
Αίθριος
Αίθριος
 Άνεμος από Β
Άνεμος: Β 26 km/h
Θερμοκρασία: 26°C
Σημ. Δρόσου: 14°C
Υγρασία: 48%
Βαρόμετρο: 1010 hPa
Περίληψη: Αίθριος
Ορατότητα: Μεγαλύτερη από 10 km
2019/07/18 15:50 LGSO 181550Z 36014KT CAVOK 26/14 Q1010
LGKL - Αεροδρόμιο στη Καλαμάτα(ΒΠΑ)
Καλαμάτα - Πελοπόννησος - Ελλάδα
Γ.Πλάτ: 37.0667 - Γ.Μήκ: 22.0167 - Υψόμ: 8μ
Απόσταση από το Vouhead Weather: (ΝΝΔ) 398χλμ
Ενημερώθηκε: 18/07/2019 19:50
Μερικώς νεφελώδης
Μερικώς νεφελώδης
 Άνεμος από calm
Άνεμος: Απνοια
Θερμοκρασία: 28°C
Σημ. Δρόσου: 11°C
Υγρασία: 35%
Βαρόμετρο: 1011 hPa
Σύννεφα: Μερικώς νεφελώδης
Ορατότητα: 10 km
Ανάλυση νέφωσης: Μερικώς νεφελώδης 914 m
2019/07/18 16:50 LGKL 181650Z 00000KT 9999 SCT030 28/11 Q1011
 
LIBY - Αεροδρόμιο στη Σάντα Μαρία ντι Λέουκα
Σάντα Μαρία ντι Λέουκα - Απουλία(Λέτσε) - Ιταλία
Γ.Πλάτ: 39.8167 - Γ.Μήκ: 18.3500 - Υψόμ: 112μ
Απόσταση από το Vouhead Weather: (Δ) 402χλμ
Ενημερώθηκε: 18/07/2019 19:55
Αίθριος
Αίθριος
 Άνεμος από ΝΔ
Άνεμος: ΝΔ 11 km/h
Θερμοκρασία: 25°C
Σημ. Δρόσου: 22°C
Υγρασία: 83%
Βαρόμετρο: 1012 hPa
Περίληψη: Αίθριος
Ορατότητα: Μεγαλύτερη από 10 km
2019/07/18 16:55 LIBY 181655Z 23006KT CAVOK 25/22 Q1012 RMK SCT SCT200 QUK 2 QUL 1 W VIS MAR 20 KM VIS MAX 20 KM VIS MIN 9999
LGMK - Αεροδρόμιο στη Μύκονο
Μύκονος - Νότιο Αιγαίο - Ελλάδα
Γ.Πλάτ: 37.4333 - Γ.Μήκ: 25.3500 - Υψόμ: 123μ
Απόσταση από το Vouhead Weather: (ΝΝΑ) 404χλμ
Ενημερώθηκε: 18/07/2019 19:50
Αίθριος
Αίθριος
 Άνεμος από ΒΒΔ
Άνεμος: ΒΒΔ 30 km/h
Θερμοκρασία: 26°C
Σημ. Δρόσου: 14°C
Υγρασία: 48%
Βαρόμετρο: 1010 hPa
Περίληψη: Αίθριος
Ορατότητα: Μεγαλύτερη από 10 km
2019/07/18 16:50 LGMK 181650Z 34016KT CAVOK 26/14 Q1010
 
LYTV - Αεροδρόμιο στο Τιβάτ
Τιβάτ - Τιβάτ - Μαυροβούνιο
Γ.Πλάτ: 42.3833 - Γ.Μήκ: 18.7167 - Υψόμ: 5μ
Απόσταση από το Vouhead Weather: (ΔΒΔ) 408χλμ
Ενημερώθηκε: 18/07/2019 20:00
Αίθριος
Αίθριος
 Άνεμος από Ν
Άνεμος: Ν 6 km/h
Θερμοκρασία: 28°C
Δείκτης Δυσφορίας: 28°C
Σημ. Δρόσου: 14°C
Υγρασία: 42%
Βαρόμετρο: 1011 hPa
Περίληψη: Αίθριος
Ορατότητα: Μεγαλύτερη από 10 km
2019/07/18 17:00 LYTV 181700Z 18003KT 150V210 CAVOK 28/14 Q1011 NOSIG
LIBN - Αεροδρόμιο στη Γκαλατίνα(ΒΠΑ)
Γκαλατίνα - Απουλία(Λέτσε) - Ιταλία
Γ.Πλάτ: 40.2167 - Γ.Μήκ: 18.1333 - Υψόμ: 61μ
Απόσταση από το Vouhead Weather: (Δ) 412χλμ
Ενημερώθηκε: 18/07/2019 19:55
Διάσπαρτα νέφη
Διάσπαρτα νέφη
 Άνεμος από ΔΝΔ
Άνεμος: ΔΝΔ 11 km/h
Θερμοκρασία: 27°C
Δείκτης Δυσφορίας: 28°C
Σημ. Δρόσου: 18°C
Υγρασία: 58%
Βαρόμετρο: 1012 hPa
Σύννεφα: Διάσπαρτα νέφη
Ορατότητα: 10 km
Ανάλυση νέφωσης: Διάσπαρτα νέφη 1067 m
2019/07/18 16:55 LIBN 181655Z 24006KT 9999 FEW035 27/18 Q1012 RMK SCT VIS MIN 9999 WIND THR14 23007KT WIND THR32 25008KT BLU
 
LYKV - Αεροδρόμιο στο Κράλιεβο & Λάντεβτσι
Κράλιεβο(Όμπρβα) - Σουμαντίγια και Δ. Σερβία - Σερβία
Γ.Πλάτ: 43.8167 - Γ.Μήκ: 20.5833 - Υψόμ: 209μ
Απόσταση από το Vouhead Weather: (ΒΒΔ) 412χλμ
Ενημερώθηκε: 18/07/2019 20:00
Διάσπαρτα νέφη
Διάσπαρτα νέφη
 Άνεμος από ΒΑ
Άνεμος: ΒΑ 6 km/h
Θερμοκρασία: 28°C
Δείκτης Δυσφορίας: 28°C
Σημ. Δρόσου: 14°C
Υγρασία: 42%
Βαρόμετρο: 1012 hPa
Σύννεφα: Διάσπαρτα νέφη
Ορατότητα: 10 km
Ανάλυση νέφωσης: Διάσπαρτα νέφη 1311 m
2019/07/18 17:00 LYKV 181700Z 05003KT 020V080 9999 FEW043 28/14 Q1012 NOSIG
LTBU - Αεροδρόμιο στο Τσορλού(ΒΠΑ)
Τσορλού - Μαρμαράς(Τεκιρντάγ-Ραιδεστός) - Τουρκία
Γ.Πλάτ: 41.1167 - Γ.Μήκ: 27.9167 - Υψόμ: 173μ
Απόσταση από το Vouhead Weather: (Α) 420χλμ
Ενημερώθηκε: 18/07/2019 19:50
Αίθριος
Αίθριος
 Άνεμος από ΒΒΑ
Άνεμος: ΒΒΑ 17 km/h
Θερμοκρασία: 25°C
Σημ. Δρόσου: 11°C
Υγρασία: 42%
Βαρόμετρο: 1013 hPa
Περίληψη: Αίθριος
Ορατότητα: Μεγαλύτερη από 10 km
2019/07/18 16:50 LTBU 181650Z 03009KT CAVOK 25/11 Q1013
 
LRCV - Αεροδρόμιο στη Κραϊόβα
Κραϊόβα - Δολζ - Ρουμανία
Γ.Πλάτ: 44.3167 - Γ.Μήκ: 23.8833 - Υψόμ: 191μ
Απόσταση από το Vouhead Weather: (Β) 424χλμ
Ενημερώθηκε: 18/07/2019 20:00
Αίθριος
Αίθριος
 Άνεμος από Α
Άνεμος: Α 7 km/h
Θερμοκρασία: 26°C
Σημ. Δρόσου: 13°C
Υγρασία: 45%
Βαρόμετρο: 1012 hPa
Σύννεφα: Αίθριος
Ορατότητα: 10 km
2019/07/18 17:00 LRCV 181700Z AUTO 08004KT 9999 NCD 26/13 Q1012
LIBR - Αεροδρόμιο στο Μπρίντιζι
(Ανεπίσημο όνομα αεροδρομίου: Ντελ Σαλέντο)
Μπρίντιζι(Πάπολα-Καζάλε) - Απουλία(Μπρίντιζι) - Ιταλία
Γ.Πλάτ: 40.6500 - Γ.Μήκ: 17.9500 - Υψόμ: 10μ
Απόσταση από το Vouhead Weather: (Δ) 424χλμ
Ενημερώθηκε: 18/07/2019 19:50
Αίθριος
Αίθριος
 Άνεμος από ΑΒΑ
Άνεμος: ΑΒΑ 9 km/h
Θερμοκρασία: 26°C
Σημ. Δρόσου: 17°C
Υγρασία: 58%
Βαρόμετρο: 1011 hPa
Περίληψη: Αίθριος
Ορατότητα: Μεγαλύτερη από 10 km
2019/07/18 16:50 LIBR 181650Z 06005KT 030V100 CAVOK 26/17 Q1011
 
LBBG - Αεροδρόμιο στo Μπουργκάς
Μπουργκάς(Σαράφοβο) - Μπουργκάς - Βουλγαρία
Γ.Πλάτ: 42.5000 - Γ.Μήκ: 27.4833 - Υψόμ: 28μ
Απόσταση από το Vouhead Weather: (ΑΒΑ) 432χλμ
Ενημερώθηκε: 18/07/2019 20:00
Αίθριος
Αίθριος
 Άνεμος από Α
Άνεμος: Α 15 km/h
Θερμοκρασία: 25°C
Σημ. Δρόσου: 19°C
Υγρασία: 69%
Βαρόμετρο: 1012 hPa
Περίληψη: Αίθριος
Ορατότητα: Μεγαλύτερη από 10 km
2019/07/18 17:00 LBBG 181700Z 09008KT CAVOK 25/19 Q1012 NOSIG
LGPA - Αεροδρόμιο "Παντελαίειο"
Πάρος - Νότιο Αιγαίο - Ελλάδα
Γ.Πλάτ: 37.0000 - Γ.Μήκ: 25.0667 - Υψόμ: 36μ
Απόσταση από το Vouhead Weather: (ΝΝΑ) 436χλμ
Ενημερώθηκε: 18/07/2019 19:50
Αίθριος
Αίθριος
 Άνεμος από Β
Άνεμος: Β 26 km/h
Θερμοκρασία: 26°C
Σημ. Δρόσου: 16°C
Υγρασία: 54%
Βαρόμετρο: 1010 hPa
Περίληψη: Αίθριος
Ορατότητα: Μεγαλύτερη από 10 km
2019/07/18 16:50 LGPA 181650Z 36014KT CAVOK 26/16 Q1010
 
LGNX - Αεροδρόμιο στη Νάξο
Νάξος - Νότιο Αιγαίο - Ελλάδα
Γ.Πλάτ: 37.0833 - Γ.Μήκ: 25.3667 - Υψόμ: 4μ
Απόσταση από το Vouhead Weather: (ΝΝΑ) 439χλμ
Ενημερώθηκε: 18/07/2019 18:50
ΜΗ ΠΡΟΣΦΑΤΟ METAR
Αίθριος
Αίθριος
 Άνεμος από Β
Άνεμος: Β 30 km/h
Θερμοκρασία: 26°C
Σημ. Δρόσου: 16°C
Υγρασία: 54%
Βαρόμετρο: 1009 hPa
Περίληψη: Αίθριος
Ορατότητα: Μεγαλύτερη από 10 km
2019/07/18 15:50 LGNX 181550Z 35016KT CAVOK 26/16 Q1009
LTBJ - Αεροδρόμιο "Αντνάν Μεντερές"
Σμύρνη - Αιγαίο(Σμύρνη) - Τουρκία
Γ.Πλάτ: 38.2667 - Γ.Μήκ: 27.1333 - Υψόμ: 120μ
Απόσταση από το Vouhead Weather: (ΝΑ) 439χλμ
Ενημερώθηκε: 18/07/2019 19:50
Αίθριος
Αίθριος
 Άνεμος από Β
Άνεμος: Β 28 km/h
Θερμοκρασία: 30°C
Σημ. Δρόσου: 10°C
Υγρασία: 29%
Βαρόμετρο: 1008 hPa
Περίληψη: Αίθριος
Ορατότητα: Μεγαλύτερη από 10 km
2019/07/18 16:50 LTBJ 181650Z 01015KT CAVOK 30/10 Q1008 NOSIG
 
LDDU - Αεροδρόμιο στο Ντουμπρόβνικ
Ντουμπρόβνικ - Ντουμπρόβνικ Νερέτβα - Κροατία
Γ.Πλάτ: 42.5667 - Γ.Μήκ: 18.2667 - Υψόμ: 165μ
Απόσταση από το Vouhead Weather: (ΔΒΔ) 450χλμ
Ενημερώθηκε: 18/07/2019 20:00
Αίθριος
Αίθριος
 Άνεμος από ΔΒΔ
Άνεμος: ΔΒΔ 9 km/h
Θερμοκρασία: 26°C
Σημ. Δρόσου: 15°C
Υγρασία: 51%
Βαρόμετρο: 1012 hPa
Περίληψη: Αίθριος
Ορατότητα: Μεγαλύτερη από 10 km
2019/07/18 17:00 LDDU 181700Z 30005KT 280V350 CAVOK 26/15 Q1012 NOSIG
LYUZ - Αεροδρόμιο στην Ούζιτσε & Πόνικβε
(Ανεπίσημο όνομα αεροδρομίου: Λέπα Γκλάβα)
Ούζιτσε - Σουμαντίγια και Δ. Σερβία - Σερβία
Γ.Πλάτ: 43.9000 - Γ.Μήκ: 19.7000 - Υψόμ: 904μ
Απόσταση από το Vouhead Weather: (ΒΔ) 458χλμ
Ενημερώθηκε: 18/07/2019 20:00
Διάσπαρτα νέφη
Διάσπαρτα νέφη
 Άνεμος από Α
Άνεμος: Α 7 km/h
Θερμοκρασία: 20°C
Σημ. Δρόσου: 12°C
Υγρασία: 60%
Βαρόμετρο: 1016 hPa
Σύννεφα: Διάσπαρτα νέφη
Ορατότητα: 10 km
Ανάλυση νέφωσης: Διάσπαρτα νέφη 610 m
Διάσπαρτα νέφη 701 m
2019/07/18 17:00 LYUZ 181700Z 08004KT 040V120 9999 FEW020TCU FEW023 20/12 Q1016
 
LGSM - Αεροδρόμιο "Αρίσταρχος ο Σάμιος"
Σάμος - Βόρειο Αιγαίο - Ελλάδα
Γ.Πλάτ: 37.6833 - Γ.Μήκ: 26.9167 - Υψόμ: 6μ
Απόσταση από το Vouhead Weather: (ΝΑ) 467χλμ
Ενημερώθηκε: 18/07/2019 19:50
Αίθριος
Αίθριος
 Άνεμος από ΒΒΔ
Άνεμος: ΒΒΔ 20 km/h
Θερμοκρασία: 26°C
Σημ. Δρόσου: 11°C
Υγρασία: 39%
Βαρόμετρο: 1008 hPa
Περίληψη: Αίθριος
Ορατότητα: Μεγαλύτερη από 10 km
2019/07/18 16:50 LGSM 181650Z 34011KT CAVOK 26/11 Q1008
LIBG - Αεροδρόμιο "Μαρτσέλο Αρλόττα"
Μουντιάζι(Ταράντο-Γκροτάλιε)-Απουλία(Ταράντο)-Ιταλία
Γ.Πλάτ: 40.5167 - Γ.Μήκ: 17.3833 - Υψόμ: 69μ
Απόσταση από το Vouhead Weather: (Δ) 472χλμ
Ενημερώθηκε: 18/07/2019 19:50
Αίθριος
Αίθριος
 Άνεμος από ΝΝΔ
Άνεμος: ΝΝΔ 15 km/h
Θερμοκρασία: 28°C
Δείκτης Δυσφορίας: 28°C
Σημ. Δρόσου: 16°C
Υγρασία: 48%
Βαρόμετρο: 1011 hPa
Περίληψη: Αίθριος
Ορατότητα: Μεγαλύτερη από 10 km
2019/07/18 16:50 LIBG 181650Z 20008KT 170V230 CAVOK 28/16 Q1011
 
LGKC - Αεροδρόμιο στα Κύθηρα
Κύθηρα(Επτάνησα) - Αττική(Νήσοι) - Ελλάδα
Γ.Πλάτ: 36.2833 - Γ.Μήκ: 23.0167 - Υψόμ: 319μ
Απόσταση από το Vouhead Weather: (Ν) 476χλμ
Ενημερώθηκε: 18/07/2019 18:50
ΜΗ ΠΡΟΣΦΑΤΟ METAR
Διάσπαρτα νέφη
Διάσπαρτα νέφη
 Άνεμος από ΑΒΑ
Άνεμος: ΑΒΑ 15 km/h
Θερμοκρασία: 27°C
Δείκτης Δυσφορίας: 28°C
Σημ. Δρόσου: 17°C
Υγρασία: 54%
Βαρόμετρο: 1013 hPa
Σύννεφα: Διάσπαρτα νέφη
Ορατότητα: 10 km
Ανάλυση νέφωσης: Διάσπαρτα νέφη 762 m
2019/07/18 15:50 LGKC 181550Z 06008KT 9999 FEW025 27/17 Q1013
LTBA - Αεροδρόμιο "Ατατούρκ"
Κωνσταντινούπολη - Μαρμαράς(Κων/πολη) - Τουρκία
Γ.Πλάτ: 40.9667 - Γ.Μήκ: 28.8167 - Υψόμ: 37μ
Απόσταση από το Vouhead Weather: (Α) 494χλμ
Ενημερώθηκε: 18/07/2019 19:50
Αίθριος
Αίθριος
 Άνεμος από ΒΑ
Άνεμος: ΒΑ 19 km/h
Θερμοκρασία: 26°C
Σημ. Δρόσου: 10°C
Υγρασία: 37%
Βαρόμετρο: 1012 hPa
Περίληψη: Αίθριος
Ορατότητα: Μεγαλύτερη από 10 km
2019/07/18 16:50 LTBA 181650Z 04010KT CAVOK 26/10 Q1012 NOSIG
   Μην χρησιμοποιήσετε τα στοιχεία για αποφάσεις που αφορούν ζωές και πάσης φύσεως ιδιοκτησίες  
ΠΗΓΑΙΝΕΤΕ ΣΤΗΝ ΙΟΝΙΑ ΠΗΓΑΙΝΕΤΕ ΣΤΗΝ ΡΕΑ ΠΗΓΑΙΝΕΤΕ ΣΤΗΝ ΚΗΦΙΣΙΑ ΠΗΓΑΙΝΕΤΕ ΣΤΗΝ ΣΥΡΟ ΠΗΓΑΙΝΕΤΕ ΣΤΗΝ ΔΕΞΑΜΕΝΗ (BOLTEK) ΠΗΓΑΙΝΕΤΕ ΣΤΗΝ ΔΕΞΑΜΕΝΗ (LR) Γενική Γραμματεία Πολιτικής Προστασίας Ενιαίος Ευρωπαϊκός Αριθμός Έκτακτης Ανάγκης Βίντεο για το Καστελλόριζο(Μεγίστη) από τα αρχεία της ΕΡΤ Ιστοσελίδα Δήμου Μεγίστης Δείτε το μεγαλύτερο